createdAt,value
2022-11-21T00:03:02.257Z,17.10
2022-11-21T00:09:04.191Z,18.80
2022-11-21T00:15:06.787Z,23.23
2022-11-21T00:21:12.509Z,20.63
2022-11-21T00:27:14.456Z,20.17
2022-11-21T00:33:16.308Z,20.77
2022-11-21T00:39:18.161Z,20.42
2022-11-21T00:45:24.273Z,21.27
2022-11-21T00:51:26.779Z,25.33
2022-11-21T00:57:28.778Z,24.00
2022-11-21T01:03:32.976Z,24.92
2022-11-21T01:09:34.863Z,21.55
2022-11-21T01:15:36.796Z,21.13
2022-11-21T01:21:38.723Z,21.52
2022-11-21T01:27:40.603Z,17.67
2022-11-21T01:33:42.828Z,18.08
2022-11-21T01:39:44.920Z,18.98
2022-11-21T01:46:09.700Z,20.60
2022-11-21T01:52:27.022Z,23.58
2022-11-21T01:58:31.163Z,20.35
2022-11-21T02:04:35.165Z,22.02
2022-11-21T02:10:38.627Z,18.80
2022-11-21T02:16:41.026Z,21.58
2022-11-21T02:22:54.938Z,22.70
2022-11-21T02:28:57.893Z,21.33
2022-11-21T02:34:59.871Z,20.70
2022-11-21T02:41:14.848Z,21.15
2022-11-21T02:47:16.812Z,20.65
2022-11-21T02:53:19.647Z,20.33
2022-11-21T02:59:21.576Z,24.23
2022-11-21T03:05:23.755Z,22.30
2022-11-21T03:11:25.619Z,22.70
2022-11-21T03:17:27.517Z,19.88
2022-11-21T03:23:29.396Z,21.02
2022-11-21T03:29:31.389Z,25.65
2022-11-21T03:35:33.345Z,22.13
2022-11-21T03:41:35.450Z,25.10
2022-11-21T03:47:37.320Z,21.40
2022-11-21T03:53:39.270Z,25.38
2022-11-21T03:59:41.166Z,23.60
2022-11-21T04:05:44.927Z,23.10
2022-11-21T04:11:46.819Z,23.90
2022-11-21T04:17:48.695Z,23.08
2022-11-21T04:23:50.574Z,26.52
2022-11-21T04:29:52.496Z,25.20
2022-11-21T04:35:54.375Z,24.90
2022-11-21T04:41:56.269Z,22.13
2022-11-21T04:47:58.212Z,23.17
2022-11-21T04:54:00.170Z,24.08
2022-11-21T05:00:02.092Z,21.23
2022-11-21T05:06:04.207Z,22.23
2022-11-21T05:12:25.522Z,20.75
2022-11-21T05:18:27.424Z,21.75
2022-11-21T05:24:29.642Z,23.92
2022-11-21T05:30:31.828Z,20.60
2022-11-21T05:36:33.747Z,23.20
2022-11-21T05:42:58.191Z,17.92
2022-11-21T05:49:00.111Z,18.98
2022-11-21T05:55:02.033Z,21.33
2022-11-21T06:01:05.464Z,22.70
2022-11-21T06:07:07.389Z,20.60
2022-11-21T06:13:22.157Z,21.27
2022-11-21T06:19:24.232Z,19.17
2022-11-21T06:25:26.155Z,18.50
2022-11-21T06:31:28.074Z,19.08
2022-11-21T06:37:30.891Z,18.95
2022-11-21T06:43:32.913Z,21.90
2022-11-21T06:49:34.772Z,21.05
2022-11-21T06:55:36.719Z,23.90
2022-11-21T07:01:38.655Z,24.27
2022-11-21T07:07:40.699Z,22.20
2022-11-21T07:13:43.795Z,26.63
2022-11-21T07:19:45.713Z,22.80
2022-11-21T07:25:48.083Z,22.40
2022-11-21T07:31:49.937Z,16.02
2022-11-21T07:37:52.083Z,17.05
2022-11-21T07:43:53.968Z,14.02
2022-11-21T07:49:55.931Z,16.35
2022-11-21T07:55:59.853Z,15.75
2022-11-21T08:02:01.812Z,17.02
2022-11-21T08:08:04.111Z,17.95
2022-11-21T08:14:05.963Z,16.30
2022-11-21T08:20:08.790Z,17.67
2022-11-21T08:26:10.752Z,18.63
2022-11-21T08:32:12.636Z,28.27
2022-11-21T08:38:14.592Z,16.75
2022-11-21T08:44:16.598Z,27.98
2022-11-21T08:50:18.661Z,18.55
2022-11-21T08:56:20.828Z,16.38
2022-11-21T09:02:22.795Z,16.83
2022-11-21T09:08:24.795Z,17.52
2022-11-21T09:14:45.151Z,17.63
2022-11-21T09:20:47.041Z,16.08
2022-11-21T09:26:49.026Z,17.13
2022-11-21T09:32:50.936Z,13.48
2022-11-21T09:38:53.266Z,12.23
2022-11-21T09:45:09.568Z,13.10
2022-11-21T09:51:15.058Z,11.40
2022-11-21T09:57:21.741Z,12.25
2022-11-21T10:03:27.249Z,9.27
2022-11-21T10:09:50.772Z,11.60
2022-11-21T10:16:03.300Z,11.85
2022-11-21T10:22:40.952Z,9.75
2022-11-21T10:28:52.438Z,8.88
2022-11-21T10:35:24.133Z,11.55
2022-11-21T10:41:47.426Z,9.93
2022-11-21T10:47:51.656Z,10.65
2022-11-21T10:54:30.427Z,11.32
2022-11-21T11:00:32.694Z,9.60
2022-11-21T11:06:34.984Z,9.10
2022-11-21T11:12:55.292Z,8.48
2022-11-21T11:19:15.692Z,8.68
2022-11-21T11:25:17.587Z,8.50
2022-11-21T11:31:19.762Z,6.00
2022-11-21T11:37:41.630Z,8.40
2022-11-21T11:44:34.132Z,7.35
2022-11-21T11:50:46.209Z,7.07
2022-11-21T11:56:49.013Z,9.00
2022-11-21T12:03:16.975Z,5.95
2022-11-21T12:09:35.759Z,6.60
2022-11-21T12:15:49.574Z,8.02
2022-11-21T12:21:51.444Z,8.40
2022-11-21T12:27:56.196Z,7.95
2022-11-21T12:34:14.167Z,7.53
2022-11-21T12:40:35.499Z,7.82
2022-11-21T12:47:03.763Z,9.82
2022-11-21T12:53:40.611Z,9.73
2022-11-21T12:59:54.195Z,8.30
2022-11-21T13:05:58.609Z,9.13
2022-11-21T13:12:11.599Z,7.72
2022-11-21T13:18:23.135Z,10.18
2022-11-21T13:24:56.425Z,9.05
2022-11-21T13:31:01.059Z,9.05
2022-11-21T13:37:03.839Z,12.93
2022-11-21T13:43:35.523Z,11.68
2022-11-21T13:49:43.575Z,14.65
2022-11-21T13:56:06.181Z,15.27
2022-11-21T14:02:29.323Z,15.80
2022-11-21T14:08:31.674Z,14.88
2022-11-21T14:14:43.738Z,15.93
2022-11-21T14:20:56.501Z,16.75
2022-11-21T14:26:58.807Z,18.90
2022-11-21T14:33:35.544Z,14.85
2022-11-21T14:39:44.357Z,18.65
2022-11-21T14:45:50.256Z,16.10
2022-11-21T14:52:03.315Z,13.57
2022-11-21T14:58:06.505Z,20.02
2022-11-21T15:20:11.945Z,17.33
2022-11-21T15:26:35.671Z,17.30
2022-11-21T15:33:03.898Z,16.38
2022-11-21T15:39:07.101Z,18.95
2022-11-21T15:52:06.034Z,18.20
2022-11-21T15:57:12.888Z,16.75
2022-11-21T15:58:05.619Z,19.53
2022-11-21T16:04:10.861Z,21.75
2022-11-21T16:10:19.934Z,23.85
2022-11-21T16:16:28.989Z,21.85
2022-11-21T16:22:31.717Z,21.42
2022-11-21T16:28:43.468Z,24.60
2022-11-21T16:34:45.552Z,26.17
2022-11-21T16:41:04.420Z,25.63
2022-11-21T16:47:08.616Z,33.20
2022-11-21T16:53:10.655Z,32.25
2022-11-21T16:59:12.545Z,32.72
2022-11-21T17:05:14.466Z,33.28
2022-11-21T17:11:28.171Z,30.00
2022-11-21T17:17:29.972Z,32.33
2022-11-21T17:23:32.896Z,33.70
2022-11-21T17:29:34.771Z,34.90
2022-11-21T17:35:36.627Z,33.85
2022-11-21T17:41:39.663Z,35.03
2022-11-21T17:47:42.252Z,33.90
2022-11-21T17:53:47.146Z,33.78
2022-11-21T17:59:49.140Z,34.45
2022-11-21T18:06:07.515Z,31.38
2022-11-21T18:12:09.578Z,31.10
2022-11-21T18:18:11.520Z,32.00
2022-11-21T18:24:13.551Z,35.40
2022-11-21T18:30:15.503Z,33.83
2022-11-21T18:36:18.247Z,35.40
2022-11-21T18:42:20.081Z,38.25
2022-11-21T18:48:23.860Z,36.15
2022-11-21T18:54:25.746Z,36.50
2022-11-21T19:00:27.671Z,35.97
2022-11-21T19:06:30.108Z,39.63
2022-11-21T19:12:37.888Z,35.80
2022-11-21T19:18:44.393Z,35.75
2022-11-21T19:24:48.410Z,39.88
2022-11-21T19:30:50.230Z,38.78
2022-11-21T19:36:53.041Z,39.05
2022-11-21T19:42:54.887Z,35.00
2022-11-21T19:48:57.533Z,45.42
2022-11-21T19:54:59.384Z,43.83
2022-11-21T20:01:12.766Z,46.63
2022-11-21T20:07:14.795Z,41.28
2022-11-21T20:13:16.710Z,48.65
2022-11-21T20:19:20.587Z,47.75
2022-11-21T20:25:22.506Z,43.40
2022-11-21T20:31:29.472Z,45.40
2022-11-21T20:37:31.287Z,43.33
2022-11-21T20:44:14.514Z,37.95
2022-11-21T20:49:55.011Z,40.53
2022-11-21T20:56:10.205Z,42.67
2022-11-21T21:02:14.209Z,39.20
2022-11-21T21:08:16.344Z,40.28
2022-11-21T21:16:57.265Z,35.03
2022-11-21T21:21:17.036Z,39.50
2022-11-21T21:27:26.493Z,42.33
2022-11-21T21:33:29.418Z,40.50
2022-11-21T21:39:33.080Z,36.75
2022-11-21T21:45:34.928Z,37.53
2022-11-21T21:51:37.506Z,37.55
2022-11-21T21:57:44.943Z,33.65
2022-11-21T22:03:53.921Z,37.00
2022-11-21T22:09:57.875Z,39.72
2022-11-21T22:16:30.051Z,42.15
2022-11-21T22:22:46.917Z,40.47
2022-11-21T22:28:50.215Z,39.50
2022-11-21T22:34:52.075Z,40.65
2022-11-21T22:40:54.167Z,39.83
2022-11-21T22:46:56.046Z,35.45
2022-11-21T22:52:57.874Z,41.08
2022-11-21T22:58:59.751Z,39.70
2022-11-21T23:05:02.049Z,39.75
2022-11-21T23:11:05.328Z,37.25
2022-11-21T23:17:07.159Z,33.75
2022-11-21T23:23:08.981Z,38.20
2022-11-21T23:29:10.881Z,37.38
2022-11-21T23:35:12.769Z,44.08
2022-11-21T23:41:14.608Z,40.17
2022-11-21T23:47:16.448Z,33.42
2022-11-21T23:53:19.035Z,36.60
2022-11-21T23:59:20.860Z,39.50
